createdAt,value
2018-12-21T00:08:32.314Z,146.00
2018-12-21T00:18:35.259Z,138.70
2018-12-21T00:28:37.889Z,132.73
2018-12-21T00:38:46.310Z,152.30
2018-12-21T00:48:49.708Z,138.63
2018-12-21T00:58:52.316Z,142.77
2018-12-21T01:08:54.929Z,136.73
2018-12-21T01:18:57.663Z,134.10
2018-12-21T01:29:00.276Z,133.10
2018-12-21T01:39:03.205Z,125.07
2018-12-21T01:49:06.108Z,131.60
2018-12-21T01:59:08.722Z,137.90
2018-12-21T02:09:11.347Z,122.57
2018-12-21T02:19:14.159Z,122.73
2018-12-21T02:29:16.780Z,126.87
2018-12-21T02:39:19.405Z,130.00
2018-12-21T02:49:22.045Z,131.77
2018-12-21T02:59:24.742Z,127.47
2018-12-21T03:09:27.333Z,128.67
2018-12-21T03:19:29.976Z,123.60
2018-12-21T03:29:32.590Z,129.90
2018-12-21T03:39:35.204Z,118.73
2018-12-21T03:49:37.820Z,129.23
2018-12-21T03:59:40.426Z,133.50
2018-12-21T04:09:43.040Z,127.73
2018-12-21T04:19:45.859Z,128.23
2018-12-21T04:29:48.470Z,128.30
2018-12-21T04:39:51.086Z,133.67
2018-12-21T04:49:53.686Z,143.37
2018-12-21T04:59:56.313Z,149.20
2018-12-21T05:09:58.906Z,155.17
2018-12-21T05:20:01.543Z,147.97
2018-12-21T05:30:06.430Z,158.07
2018-12-21T05:40:09.028Z,140.17
2018-12-21T05:50:11.649Z,152.57
2018-12-21T06:00:14.302Z,162.23
2018-12-21T06:10:16.910Z,158.20
2018-12-21T06:20:19.722Z,145.17
2018-12-21T06:30:22.326Z,145.03
2018-12-21T06:40:24.942Z,159.83
2018-12-21T06:50:27.550Z,137.67
2018-12-21T07:00:30.173Z,130.87
2018-12-21T07:10:32.778Z,136.47
2018-12-21T07:20:35.389Z,141.20
2018-12-21T07:30:38.022Z,202.70
2018-12-21T07:40:40.636Z,143.27
2018-12-21T07:50:43.530Z,144.50
2018-12-21T08:00:46.142Z,136.73
2018-12-21T08:10:49.656Z,114.60
2018-12-21T08:20:52.494Z,120.60
2018-12-21T08:30:55.101Z,107.60
2018-12-21T08:40:57.725Z,104.47
2018-12-21T08:51:00.349Z,145.97
2018-12-21T09:01:03.234Z,119.80
2018-12-21T09:11:05.838Z,123.47
2018-12-21T09:21:08.470Z,99.83
2018-12-21T09:31:11.361Z,123.57
2018-12-21T09:41:13.984Z,144.10
2018-12-21T09:51:16.584Z,105.00
2018-12-21T10:01:19.204Z,100.97
2018-12-21T10:11:21.813Z,106.23
2018-12-21T10:21:24.439Z,97.37
2018-12-21T10:31:27.327Z,81.77
2018-12-21T10:41:29.946Z,72.97
2018-12-21T10:51:32.549Z,72.13
2018-12-21T11:01:35.151Z,68.02
2018-12-21T11:11:38.054Z,62.50
2018-12-21T11:21:40.722Z,61.03
2018-12-21T11:31:43.341Z,65.37
2018-12-21T11:41:45.951Z,56.80
2018-12-21T11:51:48.558Z,52.17
2018-12-21T12:01:51.301Z,47.93
2018-12-21T12:11:53.919Z,51.07
2018-12-21T12:21:56.540Z,48.53
2018-12-21T12:31:59.158Z,57.50
2018-12-21T12:42:03.650Z,71.00
2018-12-21T12:52:06.431Z,60.83
2018-12-21T13:02:09.333Z,58.33
2018-12-21T13:12:11.940Z,61.00
2018-12-21T13:22:14.538Z,57.13
2018-12-21T13:32:17.524Z,60.73
2018-12-21T13:42:20.122Z,98.30
2018-12-21T13:52:23.098Z,93.40
2018-12-21T14:02:25.910Z,126.17
2018-12-21T14:12:28.852Z,92.47
2018-12-21T14:22:31.546Z,73.17
2018-12-21T14:32:34.170Z,88.13
2018-12-21T14:42:37.264Z,91.13
2018-12-21T14:52:39.896Z,108.20
2018-12-21T15:02:42.622Z,73.27
2018-12-21T15:12:45.240Z,70.17
2018-12-21T15:22:47.957Z,61.73
2018-12-21T15:32:50.584Z,65.37
2018-12-21T15:42:53.531Z,79.10
2018-12-21T15:52:56.131Z,86.50
2018-12-21T16:02:58.747Z,89.67
2018-12-21T16:13:01.448Z,108.23
2018-12-21T16:23:04.113Z,110.40
2018-12-21T16:33:06.772Z,133.37
2018-12-21T16:43:09.430Z,138.87
2018-12-21T16:53:12.050Z,139.93
2018-12-21T17:03:15.673Z,117.77
2018-12-21T17:13:18.638Z,139.23
2018-12-21T17:23:21.667Z,152.93
2018-12-21T17:33:24.608Z,149.67
2018-12-21T17:43:27.237Z,154.17
2018-12-21T17:53:29.863Z,176.87
2018-12-21T18:03:32.646Z,193.23
2018-12-21T18:13:35.256Z,178.80
2018-12-21T18:23:38.472Z,151.60
2018-12-21T18:33:42.948Z,173.37
2018-12-21T18:43:45.561Z,176.90
2018-12-21T18:53:48.158Z,212.93
2018-12-21T19:03:50.786Z,161.80
2018-12-21T19:13:53.408Z,229.47
2018-12-21T19:23:56.498Z,157.03
2018-12-21T19:33:59.110Z,175.93
2018-12-21T19:44:01.757Z,153.00
2018-12-21T19:54:04.365Z,165.27
2018-12-21T20:04:06.985Z,165.87
2018-12-21T20:14:09.638Z,190.07
2018-12-21T20:24:12.381Z,186.03
2018-12-21T20:34:15.005Z,147.90
2018-12-21T20:44:17.606Z,168.50
2018-12-21T20:54:20.259Z,167.23
2018-12-21T21:04:22.863Z,150.83
2018-12-21T21:14:25.478Z,146.90
2018-12-21T21:24:28.216Z,166.00
2018-12-21T21:34:30.840Z,132.13
2018-12-21T21:44:33.464Z,138.40
2018-12-21T21:54:36.073Z,132.27
2018-12-21T22:04:38.680Z,117.20
2018-12-21T22:14:41.298Z,121.03
2018-12-21T22:24:43.962Z,107.20
2018-12-21T22:34:46.561Z,111.60
2018-12-21T22:44:49.169Z,120.10
2018-12-21T22:54:51.775Z,115.80
2018-12-21T23:04:54.392Z,115.93
2018-12-21T23:14:56.994Z,118.17
2018-12-21T23:24:59.589Z,118.63
2018-12-21T23:35:02.235Z,125.40
2018-12-21T23:45:05.630Z,121.30
2018-12-21T23:55:08.517Z,110.43
